Time;durP1;ratioP1;P1;durP2;ratioP2;P2;SDS_P1;SDS_P2;PMS_P1;PMS_P2;Temp;Humidity;BMP_temperature;BMP_pressure;BME280_temperature;BME280_humidity;BME280_pressure;Samples;Min_cycle;Max_cycle;Signal;HPM_P1;HPM_P2
2023/04/26 00:01:34;;;;;;;5.72;4.00;;;18.70;53.10;;;;;;6227213;23;20563;-83
2023/04/26 00:04:00;;;;;;;6.05;4.07;;;18.70;53.10;;;;;;6227028;23;20178;-84
2023/04/26 00:06:26;;;;;;;5.75;4.38;;;18.70;53.10;;;;;;6227563;23;20140;-84
2023/04/26 00:08:52;;;;;;;4.72;3.92;;;18.70;53.20;;;;;;6227402;23;20148;-84
2023/04/26 00:11:18;;;;;;;5.15;3.92;;;18.70;53.10;;;;;;6202546;23;20152;-84
2023/04/26 00:13:44;;;;;;;4.80;3.88;;;18.70;53.10;;;;;;6202693;23;20156;-85
2023/04/26 00:16:10;;;;;;;5.00;4.07;;;18.70;53.00;;;;;;6227868;23;20137;-85
2023/04/26 00:18:36;;;;;;;4.43;4.03;;;18.70;53.00;;;;;;6201530;23;20225;-85
2023/04/26 00:21:02;;;;;;;5.38;4.20;;;18.70;53.00;;;;;;6124715;23;20156;-86
2023/04/26 00:23:28;;;;;;;4.65;4.05;;;18.70;53.10;;;;;;6226437;23;20149;-85
2023/04/26 00:25:55;;;;;;;6.38;3.92;;;18.70;53.20;;;;;;6201687;23;20159;-85
2023/04/26 00:28:21;;;;;;;4.72;3.65;;;18.60;53.10;;;;;;6227050;23;20133;-85
2023/04/26 00:30:47;;;;;;;4.85;4.13;;;18.60;53.20;;;;;;6201062;23;20199;-84
2023/04/26 00:33:17;;;;;;;4.47;3.97;;;18.60;53.20;;;;;;6201270;23;20216;-84
2023/04/26 00:35:43;;;;;;;5.30;4.28;;;18.60;53.20;;;;;;6176229;23;20148;-85
2023/04/26 00:38:13;;;;;;;4.68;3.80;;;18.60;53.30;;;;;;6201386;23;20148;-85
2023/04/26 00:40:39;;;;;;;4.25;3.72;;;18.60;53.40;;;;;;6150882;23;20167;-85
2023/04/26 00:43:09;;;;;;;5.18;3.63;;;18.60;53.20;;;;;;6201548;23;20168;-85
2023/04/26 00:45:35;;;;;;;5.38;4.30;;;18.60;53.30;;;;;;6150670;23;20152;-85
2023/04/26 00:48:05;;;;;;;5.78;4.10;;;18.60;53.20;;;;;;6226875;23;20144;-85
2023/04/26 00:50:35;;;;;;;4.65;3.95;;;18.60;53.20;;;;;;6150193;23;20157;-85
2023/04/26 00:53:06;;;;;;;4.25;3.83;;;18.60;53.20;;;;;;6150644;23;20179;-85
2023/04/26 00:55:32;;;;;;;4.40;3.80;;;18.60;53.20;;;;;;6127382;23;20248;-85
2023/04/26 00:57:58;;;;;;;4.80;3.97;;;18.60;53.10;;;;;;6226453;23;20137;-85
2023/04/26 01:00:28;;;;;;;4.82;3.83;;;18.60;53.30;;;;;;6201102;23;20183;-85
2023/04/26 01:02:54;;;;;;;5.07;4.38;;;18.50;53.20;;;;;;6126745;23;20162;-84
2023/04/26 01:05:24;;;;;;;4.10;3.50;;;18.60;53.30;;;;;;6200924;23;20148;-85
2023/04/26 01:07:50;;;;;;;4.50;3.97;;;18.60;53.20;;;;;;6151127;23;20159;-84
2023/04/26 01:10:17;;;;;;;5.45;3.67;;;18.60;53.30;;;;;;6226074;23;20171;-85
2023/04/26 01:12:48;;;;;;;4.35;3.65;;;18.60;53.30;;;;;;6200853;23;20155;-85
2023/04/26 01:15:15;;;;;;;4.07;3.67;;;18.60;53.30;;;;;;6174310;23;20179;-85
2023/04/26 01:17:48;;;;;;;4.60;3.92;;;18.60;54.00;;;;;;6201083;23;20590;-84
2023/04/26 01:20:14;;;;;;;4.43;3.78;;;18.60;53.40;;;;;;6174593;23;20179;-85
2023/04/26 01:22:41;;;;;;;5.78;3.95;;;18.60;53.30;;;;;;6124032;23;20132;-85
2023/04/26 01:25:07;;;;;;;4.75;3.97;;;18.60;53.30;;;;;;6124019;23;20618;-85
2023/04/26 01:27:37;;;;;;;4.38;3.92;;;18.60;53.20;;;;;;6225433;23;20136;-85
2023/04/26 01:30:03;;;;;;;4.63;4.00;;;18.60;53.30;;;;;;6150168;22;20591;-84
2023/04/26 01:32:29;;;;;;;4.35;3.70;;;18.50;53.30;;;;;;6175375;23;20488;-85
2023/04/26 01:34:55;;;;;;;4.07;3.67;;;18.60;53.30;;;;;;6226173;23;20167;-85
2023/04/26 01:37:26;;;;;;;4.30;3.80;;;18.50;53.50;;;;;;6200589;23;20610;-85
2023/04/26 01:39:55;;;;;;;4.50;3.83;;;18.50;53.30;;;;;;6150065;23;20183;-85
2023/04/26 01:42:21;;;;;;;3.92;3.47;;;18.50;53.30;;;;;;6150382;23;20156;-85
2023/04/26 01:44:47;;;;;;;4.53;3.90;;;18.60;53.30;;;;;;6201098;23;20194;-85
2023/04/26 01:47:17;;;;;;;4.22;3.83;;;18.50;53.30;;;;;;6201356;23;20143;-85
2023/04/26 01:49:47;;;;;;;4.70;3.50;;;18.60;53.30;;;;;;6150234;23;20156;-85
2023/04/26 01:52:13;;;;;;;4.38;3.83;;;18.60;53.10;;;;;;6150064;23;20194;-85
2023/04/26 01:54:38;;;;;;;4.22;3.60;;;18.60;53.30;;;;;;6200869;23;20148;-86
2023/04/26 01:57:04;;;;;;;4.40;3.95;;;18.60;53.20;;;;;;6124345;23;20156;-85
2023/04/26 01:59:30;;;;;;;4.78;3.90;;;18.60;53.30;;;;;;6225643;23;20168;-86
2023/04/26 02:01:56;;;;;;;4.55;3.97;;;18.50;53.40;;;;;;6225811;23;20137;-84
2023/04/26 02:04:23;;;;;;;5.10;3.83;;;18.50;53.20;;;;;;6226209;23;20174;-85
2023/04/26 02:06:52;;;;;;;4.65;3.90;;;18.60;53.30;;;;;;6225814;23;20155;-85
2023/04/26 02:09:18;;;;;;;4.38;3.72;;;18.60;53.30;;;;;;6125777;23;20199;-85
2023/04/26 02:11:45;;;;;;;4.70;3.67;;;18.50;53.30;;;;;;6124053;23;20133;-84
2023/04/26 02:14:11;;;;;;;4.35;3.85;;;18.50;53.10;;;;;;6225977;23;20172;-84
2023/04/26 02:16:39;;;;;;;4.35;3.95;;;18.50;53.30;;;;;;6200439;23;20584;-84
2023/04/26 02:19:09;;;;;;;4.53;4.03;;;18.50;53.30;;;;;;6224990;23;20195;-84
2023/04/26 02:21:53;;;;;;;4.95;4.00;;;18.50;53.10;;;;;;6222309;23;20139;-85
2023/04/26 02:24:23;;;;;;;4.20;3.80;;;18.60;53.20;;;;;;6123456;23;20160;-86
2023/04/26 02:26:49;;;;;;;5.47;3.95;;;18.60;53.30;;;;;;6150214;23;20156;-84
2023/04/26 02:29:15;;;;;;;4.32;3.80;;;18.50;53.30;;;;;;6225072;23;20187;-85
2023/04/26 02:31:41;;;;;;;4.93;3.83;;;18.50;53.30;;;;;;6136516;23;20199;-84
2023/04/26 02:34:07;;;;;;;4.55;3.70;;;18.50;53.30;;;;;;6097461;23;20468;-85
2023/04/26 02:36:33;;;;;;;4.70;3.90;;;18.50;53.60;;;;;;6123439;23;20137;-87
2023/04/26 02:39:03;;;;;;;4.93;3.90;;;18.50;53.50;;;;;;6122230;23;20580;-85
2023/04/26 02:41:31;;;;;;;3.88;3.42;;;18.50;53.40;;;;;;6072843;23;20152;-85
2023/04/26 02:43:57;;;;;;;4.60;3.83;;;18.50;53.50;;;;;;6122143;23;20132;-85
2023/04/26 02:46:23;;;;;;;4.53;3.80;;;18.40;53.30;;;;;;6123465;23;20464;-85
2023/04/26 02:48:49;;;;;;;4.50;3.88;;;18.50;53.40;;;;;;6123491;23;20215;-84
2023/04/26 02:51:15;;;;;;;4.38;3.67;;;18.50;53.40;;;;;;6097431;23;20148;-85
2023/04/26 02:53:41;;;;;;;4.65;3.80;;;18.40;53.40;;;;;;6097462;23;20152;-86
2023/04/26 02:56:07;;;;;;;4.15;3.63;;;18.50;53.50;;;;;;6121448;23;20564;-84
2023/04/26 02:58:33;;;;;;;4.55;3.80;;;18.40;53.60;;;;;;6121658;23;20205;-85
2023/04/26 03:00:59;;;;;;;4.07;3.65;;;18.40;53.60;;;;;;6121383;23;20144;-84
2023/04/26 03:03:25;;;;;;;4.28;3.60;;;18.50;53.70;;;;;;6097161;23;20232;-85
2023/04/26 03:05:55;;;;;;;5.25;3.67;;;18.40;53.50;;;;;;6121957;23;20575;-85
2023/04/26 03:08:21;;;;;;;4.20;3.67;;;18.40;53.50;;;;;;6173625;23;20152;-85
2023/04/26 03:10:47;;;;;;;4.18;3.35;;;18.40;53.60;;;;;;6121392;23;20133;-84
2023/04/26 03:13:14;;;;;;;5.00;4.00;;;18.40;53.30;;;;;;6097269;23;20167;-84
2023/04/26 03:15:48;;;;;;;5.03;3.60;;;18.40;53.20;;;;;;6121218;23;20568;-85
2023/04/26 03:18:14;;;;;;;4.45;3.80;;;18.50;53.40;;;;;;6172975;23;20156;-85
2023/04/26 03:20:41;;;;;;;4.10;3.70;;;18.50;53.60;;;;;;6121316;23;20461;-85
2023/04/26 03:23:07;;;;;;;4.70;3.65;;;18.40;53.60;;;;;;6123187;23;20136;-84
2023/04/26 03:25:37;;;;;;;4.00;3.58;;;18.40;53.70;;;;;;6097261;23;20148;-85
2023/04/26 03:28:03;;;;;;;4.20;3.80;;;18.40;53.60;;;;;;6198666;23;20202;-84
2023/04/26 03:30:29;;;;;;;3.97;3.50;;;18.40;53.50;;;;;;6122687;22;20195;-85
2023/04/26 03:32:59;;;;;;;4.47;3.47;;;18.40;53.60;;;;;;6199969;23;20160;-85
2023/04/26 03:35:25;;;;;;;4.72;3.83;;;18.40;53.50;;;;;;6149192;23;20156;-84
2023/04/26 03:37:51;;;;;;;4.50;3.75;;;18.40;53.50;;;;;;6224463;23;20572;-85
2023/04/26 03:40:17;;;;;;;4.22;3.83;;;18.40;53.40;;;;;;6199323;23;20203;-85
2023/04/26 03:42:47;;;;;;;4.97;3.95;;;18.40;53.50;;;;;;6224801;23;20507;-85
2023/04/26 03:45:13;;;;;;;4.10;3.63;;;18.40;53.60;;;;;;6173156;23;20161;-85
2023/04/26 03:47:39;;;;;;;4.18;3.45;;;18.40;53.60;;;;;;6200036;23;20148;-84
2023/04/26 03:50:07;;;;;;;4.78;3.80;;;18.40;53.60;;;;;;6224843;23;20460;-84
2023/04/26 03:52:36;;;;;;;4.47;3.50;;;18.40;53.80;;;;;;6224659;23;20148;-85
2023/04/26 03:55:08;;;;;;;4.10;3.70;;;18.30;53.80;;;;;;6149163;23;20171;-85
2023/04/26 03:57:35;;;;;;;5.30;4.05;;;18.40;53.70;;;;;;6172662;23;20160;-84
2023/04/26 04:00:10;;;;;;;4.00;3.60;;;18.30;53.80;;;;;;6224531;23;20164;-84
2023/04/26 04:02:40;;;;;;;4.68;3.80;;;18.40;53.70;;;;;;6177296;22;20274;-84
2023/04/26 04:05:07;;;;;;;5.25;3.60;;;18.30;53.80;;;;;;6173611;23;20156;-85
2023/04/26 04:07:33;;;;;;;4.40;3.15;;;18.40;53.70;;;;;;6224254;23;20137;-84
2023/04/26 04:09:59;;;;;;;4.57;3.70;;;18.40;53.80;;;;;;6199762;23;20179;-85
2023/04/26 04:12:25;;;;;;;5.15;3.88;;;18.30;53.70;;;;;;6224219;23;20190;-84
2023/04/26 04:14:51;;;;;;;4.20;3.63;;;18.40;53.70;;;;;;6199116;23;20219;-83
2023/04/26 04:17:18;;;;;;;4.20;3.80;;;18.30;53.70;;;;;;6224788;23;20143;-84
2023/04/26 04:19:48;;;;;;;4.47;3.85;;;18.30;53.80;;;;;;6224437;23;20672;-85
2023/04/26 04:22:14;;;;;;;4.13;3.50;;;18.40;53.50;;;;;;6124294;23;20156;-84
2023/04/26 04:24:46;;;;;;;4.35;3.40;;;18.30;53.50;;;;;;6224319;23;20579;-85
2023/04/26 04:27:12;;;;;;;4.30;3.75;;;18.40;53.70;;;;;;6173586;23;20156;-85
2023/04/26 04:29:42;;;;;;;4.10;3.70;;;18.40;53.80;;;;;;6201242;23;20179;-84
2023/04/26 04:32:14;;;;;;;3.95;3.42;;;18.30;53.70;;;;;;6199843;23;20253;-84
2023/04/26 04:34:40;;;;;;;4.53;3.50;;;18.40;53.70;;;;;;6127125;23;20163;-83
2023/04/26 04:37:06;;;;;;;4.15;3.63;;;18.30;53.60;;;;;;6201250;23;20159;-85
2023/04/26 04:39:32;;;;;;;5.05;3.70;;;18.30;53.70;;;;;;6225677;23;20503;-85
2023/04/26 04:41:59;;;;;;;3.80;3.30;;;18.30;53.70;;;;;;6226225;23;20129;-85
2023/04/26 04:44:29;;;;;;;4.15;3.45;;;18.30;53.70;;;;;;6225137;23;20187;-84
2023/04/26 04:46:55;;;;;;;3.72;3.33;;;18.30;53.80;;;;;;6174836;23;21107;-84
2023/04/26 04:49:23;;;;;;;4.43;3.58;;;18.30;53.90;;;;;;6226048;23;20637;-84
2023/04/26 04:51:50;;;;;;;4.55;3.67;;;18.30;53.90;;;;;;6123596;23;20564;-84
2023/04/26 04:54:16;;;;;;;4.28;3.28;;;18.30;53.90;;;;;;6200162;23;20156;-85
2023/04/26 04:56:43;;;;;;;4.70;3.60;;;18.30;53.90;;;;;;6225447;23;20147;-84
2023/04/26 04:59:09;;;;;;;4.70;3.33;;;18.30;54.00;;;;;;6200379;23;20184;-85
2023/04/26 05:01:36;;;;;;;3.95;3.53;;;18.30;54.00;;;;;;6200554;23;20152;-85
2023/04/26 05:04:02;;;;;;;5.30;4.10;;;18.20;53.90;;;;;;6200973;23;20606;-84
2023/04/26 05:06:28;;;;;;;3.40;3.10;;;18.30;54.00;;;;;;6124041;23;20262;-84
2023/04/26 05:08:55;;;;;;;4.50;3.53;;;18.30;53.90;;;;;;6200717;23;20152;-85
2023/04/26 05:11:21;;;;;;;3.80;3.17;;;18.30;54.00;;;;;;6200374;23;20220;-84
2023/04/26 05:13:52;;;;;;;3.47;3.17;;;18.30;54.00;;;;;;6124203;23;20221;-85
2023/04/26 05:16:19;;;;;;;4.13;3.38;;;18.30;54.00;;;;;;6126094;23;20160;-84
2023/04/26 05:18:45;;;;;;;4.03;3.63;;;18.30;54.00;;;;;;6159943;23;20185;-85
2023/04/26 05:21:11;;;;;;;5.25;3.60;;;18.30;53.90;;;;;;6160325;23;20626;-84
2023/04/26 05:23:37;;;;;;;3.72;3.35;;;18.30;54.00;;;;;;6160357;23;20150;-84
2023/04/26 05:26:05;;;;;;;5.47;3.60;;;18.30;53.90;;;;;;6185145;23;20147;-86
2023/04/26 05:28:33;;;;;;;5.20;3.90;;;18.30;53.80;;;;;;6164604;23;20146;-86
2023/04/26 05:31:01;;;;;;;3.90;3.38;;;18.20;53.80;;;;;;6190055;23;20209;-84
2023/04/26 05:33:28;;;;;;;4.70;3.60;;;18.30;53.90;;;;;;6141980;23;20267;-85
2023/04/26 05:35:54;;;;;;;3.95;3.55;;;18.30;53.90;;;;;;6161794;23;20186;-85
2023/04/26 05:38:20;;;;;;;4.32;3.90;;;18.30;53.90;;;;;;6159555;23;20190;-86
2023/04/26 05:40:47;;;;;;;3.78;3.38;;;18.30;53.90;;;;;;6134854;23;20178;-86
2023/04/26 05:43:18;;;;;;;5.10;3.80;;;18.30;53.90;;;;;;6135335;23;20634;-84
2023/04/26 05:46:00;;;;;;;3.97;3.58;;;18.30;53.90;;;;;;6135445;23;20224;-85
2023/04/26 05:48:26;;;;;;;4.32;3.67;;;18.30;54.00;;;;;;6160090;23;20146;-85
2023/04/26 05:50:56;;;;;;;3.92;3.53;;;18.20;53.90;;;;;;6170086;23;20226;-85
2023/04/26 05:53:26;;;;;;;4.20;3.50;;;18.30;53.90;;;;;;6145304;23;20160;-84
2023/04/26 05:55:52;;;;;;;4.45;3.50;;;18.30;53.90;;;;;;6144635;23;20229;-86
2023/04/26 05:58:18;;;;;;;4.15;3.35;;;18.30;53.90;;;;;;6171848;23;20156;-86
2023/04/26 06:00:44;;;;;;;4.72;3.65;;;18.30;53.90;;;;;;6198992;23;20168;-85
2023/04/26 06:03:15;;;;;;;4.85;3.60;;;18.30;54.20;;;;;;6197110;23;20129;-84
2023/04/26 06:05:41;;;;;;;4.60;3.42;;;18.30;54.10;;;;;;6146177;23;20161;-85
2023/04/26 06:08:07;;;;;;;5.07;3.80;;;18.30;54.20;;;;;;6171762;23;20646;-84
2023/04/26 06:10:36;;;;;;;3.92;3.53;;;18.30;54.30;;;;;;6175007;23;20153;-84
2023/04/26 06:13:09;;;;;;;4.32;3.60;;;18.30;54.40;;;;;;6178275;23;20148;-84
2023/04/26 06:15:35;;;;;;;4.50;3.58;;;18.30;54.00;;;;;;6148318;23;20627;-83
2023/04/26 06:18:10;;;;;;;3.47;3.00;;;18.30;54.10;;;;;;6173564;23;20167;-85
2023/04/26 06:20:39;;;;;;;4.00;3.40;;;18.30;54.10;;;;;;6130482;23;20194;-85
2023/04/26 06:23:08;;;;;;;4.43;3.40;;;18.30;54.10;;;;;;6020153;23;20178;-85
2023/04/26 06:25:55;;;;;;;4.00;3.33;;;18.30;54.10;;;;;;6117331;23;20158;-85
2023/04/26 06:28:25;;;;;;;6.25;3.65;;;18.30;54.10;;;;;;6126110;23;20161;-85
2023/04/26 06:31:03;;;;;;;;;;;;;;;;;;;;;
2023/04/26 07:30:15;;;;;;;2.47;2.28;;;18.60;53.20;;;;;;6122035;22;20151;-83
2023/04/26 07:32:42;;;;;;;2.50;2.20;;;18.60;53.00;;;;;;6129144;23;20142;-82
2023/04/26 07:35:16;;;;;;;2.47;2.28;;;18.70;52.90;;;;;;6204331;23;20136;-81
2023/04/26 07:37:45;;;;;;;4.38;2.67;;;18.70;52.80;;;;;;6202376;23;20150;-83
2023/04/26 07:40:16;;;;;;;4.82;2.00;;;18.70;52.60;;;;;;6189924;23;20302;-83
2023/04/26 07:42:42;;;;;;;3.22;2.28;;;18.70;52.50;;;;;;6113311;23;20159;-82
2023/04/26 07:45:12;;;;;;;3.38;2.20;;;18.70;53.10;;;;;;6160611;23;20160;-81
2023/04/26 07:47:38;;;;;;;3.60;2.17;;;18.80;52.50;;;;;;6114254;23;20270;-83
2023/04/26 07:50:04;;;;;;;2.28;2.00;;;18.70;52.60;;;;;;6161152;23;20151;-83
2023/04/26 07:52:30;;;;;;;2.58;2.38;;;18.80;52.60;;;;;;6161147;23;20174;-82
2023/04/26 07:54:56;;;;;;;2.00;1.88;;;18.70;52.60;;;;;;6184556;23;20159;-82
2023/04/26 07:57:23;;;;;;;3.00;1.98;;;18.70;52.60;;;;;;6160341;23;20149;-82
2023/04/26 07:59:49;;;;;;;2.90;1.98;;;18.70;52.60;;;;;;6185675;23;20178;-82
2023/04/26 08:02:19;;;;;;;4.43;2.00;;;18.70;52.60;;;;;;6161540;23;20135;-83
2023/04/26 08:04:51;;;;;;;2.25;2.05;;;18.70;52.80;;;;;;6090297;23;20174;-83
2023/04/26 08:07:17;;;;;;;1.90;1.60;;;18.70;52.80;;;;;;6164032;23;20143;-83
2023/04/26 08:09:43;;;;;;;1.50;1.38;;;18.70;52.30;;;;;;6139158;23;20223;-81
2023/04/26 08:12:10;;;;;;;2.15;1.90;;;18.80;52.20;;;;;;6173376;23;20163;-83
2023/04/26 08:14:37;;;;;;;6.57;2.03;;;18.80;52.70;;;;;;6229776;23;20141;-82
2023/04/26 08:17:03;;;;;;;4.97;2.15;;;18.70;52.70;;;;;;6203731;23;20167;-82
2023/04/26 08:19:32;;;;;;;6.10;2.17;;;18.70;52.70;;;;;;6230933;23;20188;-83
2023/04/26 08:21:58;;;;;;;7.03;2.17;;;18.70;52.70;;;;;;6125664;23;20171;-82
2023/04/26 08:24:24;;;;;;;9.43;2.00;;;18.70;52.80;;;;;;6177974;23;20453;-82
2023/04/26 08:26:50;;;;;;;8.65;2.20;;;18.80;52.60;;;;;;6203384;23;20140;-82
2023/04/26 08:29:17;;;;;;;8.52;2.30;;;18.80;52.40;;;;;;6227700;23;20140;-82
2023/04/26 08:31:43;;;;;;;7.18;2.05;;;18.80;52.60;;;;;;6165423;23;20196;-82
2023/04/26 08:34:10;;;;;;;8.52;2.20;;;18.80;52.60;;;;;;6227562;23;20148;-82
2023/04/26 08:36:37;;;;;;;3.83;2.10;;;18.80;52.70;;;;;;6226510;23;20225;-82
2023/04/26 08:39:03;;;;;;;5.63;2.20;;;18.80;52.60;;;;;;6202252;23;20187;-82
2023/04/26 08:41:41;;;;;;;6.10;2.08;;;18.80;52.80;;;;;;6203075;23;20145;-82
2023/04/26 08:44:07;;;;;;;4.47;1.80;;;18.80;52.30;;;;;;6182235;23;20172;-81
2023/04/26 08:46:46;;;;;;;2.75;1.60;;;18.90;52.30;;;;;;6203657;23;20451;-82
2023/04/26 08:49:29;;;;;;;6.65;1.88;;;18.80;52.10;;;;;;6180922;23;20245;-82
2023/04/26 08:55:50;;;;;;;3.40;1.38;;;18.80;52.30;;;;;;6071360;23;20217;-83
2023/04/26 08:58:36;;;;;;;6.07;1.90;;;18.80;51.90;;;;;;6046397;23;20244;-83
2023/04/26 09:01:13;;;;;;;2.90;1.70;;;18.80;52.00;;;;;;6069143;23;20624;-84
2023/04/26 09:03:45;;;;;;;2.72;1.60;;;18.80;51.80;;;;;;5998429;23;20164;-83
2023/04/26 09:06:12;;;;;;;5.50;1.75;;;18.80;51.50;;;;;;6000965;23;20301;-83
2023/04/26 09:08:39;;;;;;;2.10;1.50;;;18.90;51.40;;;;;;6045763;23;20149;-83
2023/04/26 09:11:05;;;;;;;3.45;1.58;;;18.80;51.40;;;;;;6045847;23;20156;-84
2023/04/26 09:13:33;;;;;;;4.63;1.70;;;18.80;51.30;;;;;;6045902;23;20153;-84
2023/04/26 09:16:10;;;;;;;4.30;1.50;;;18.90;51.40;;;;;;6046829;23;20153;-84
2023/04/26 09:18:50;;;;;;;1.98;1.58;;;18.90;51.30;;;;;;5999712;23;20500;-83
2023/04/26 09:21:18;;;;;;;1.80;1.48;;;18.90;51.00;;;;;;6044877;23;20236;-82
2023/04/26 09:23:58;;;;;;;3.15;1.70;;;18.90;51.30;;;;;;6046912;23;20288;-84
2023/04/26 09:26:26;;;;;;;3.35;1.40;;;19.00;51.30;;;;;;6048418;23;20264;-83
2023/04/26 09:29:17;;;;;;;3.20;1.60;;;19.00;51.90;;;;;;6047181;23;20197;-82
2023/04/26 09:31:45;;;;;;;4.90;1.45;;;18.90;51.30;;;;;;6054311;23;20257;-83
2023/04/26 09:34:17;;;;;;;6.10;1.33;;;19.00;51.40;;;;;;6173171;23;20163;-84
2023/04/26 09:36:55;;;;;;;2.25;1.33;;;19.00;51.30;;;;;;6119323;23;20187;-83
2023/04/26 09:39:36;;;;;;;3.10;1.50;;;19.00;51.00;;;;;;6093694;23;20175;-84
2023/04/26 09:42:08;;;;;;;1.75;1.17;;;18.90;51.00;;;;;;6170952;23;20163;-84
2023/04/26 09:44:45;;;;;;;2.20;1.25;;;18.90;51.10;;;;;;6095737;23;20166;-82
2023/04/26 09:47:49;;;;;;;3.88;1.60;;;19.00;50.80;;;;;;6100096;23;20156;-83
2023/04/26 09:50:31;;;;;;;2.30;1.23;;;19.00;51.40;;;;;;6128927;23;20182;-84
2023/04/26 09:53:01;;;;;;;3.30;1.38;;;19.00;50.80;;;;;;6127302;23;20154;-83
2023/04/26 09:55:31;;;;;;;4.32;1.63;;;18.90;50.90;;;;;;6102553;23;20159;-83
2023/04/26 09:58:06;;;;;;;3.30;1.48;;;19.00;51.00;;;;;;6078406;23;20625;-83
2023/04/26 10:00:36;;;;;;;2.65;1.17;;;18.90;51.10;;;;;;6081267;23;20580;-82
2023/04/26 10:03:06;;;;;;;2.45;1.27;;;18.90;50.90;;;;;;6080657;23;20151;-82
2023/04/26 10:05:32;;;;;;;2.20;1.30;;;18.90;50.70;;;;;;6080869;23;20151;-83
2023/04/26 10:07:57;;;;;;;1.40;1.20;;;19.00;50.80;;;;;;6153209;23;20158;-82
2023/04/26 10:10:23;;;;;;;3.83;1.48;;;18.90;50.70;;;;;;6153576;23;20148;-82
2023/04/26 10:12:49;;;;;;;3.13;1.40;;;18.90;50.70;;;;;;6153555;23;20475;-82
2023/04/26 10:15:16;;;;;;;2.97;1.40;;;18.90;50.60;;;;;;6129228;23;20143;-82
2023/04/26 10:17:43;;;;;;;2.20;1.27;;;18.90;50.40;;;;;;6104393;23;20161;-82
2023/04/26 10:20:12;;;;;;;1.67;1.00;;;18.90;50.10;;;;;;6104066;23;20187;-82
2023/04/26 10:22:45;;;;;;;1.42;1.10;;;18.90;50.20;;;;;;6058009;23;20159;-83
2023/04/26 10:25:10;;;;;;;1.98;1.50;;;18.90;50.50;;;;;;6106124;23;20175;-82
2023/04/26 10:27:47;;;;;;;3.25;1.48;;;18.90;50.70;;;;;;6177773;23;20157;-83
2023/04/26 10:30:15;;;;;;;1.55;1.10;;;18.90;50.90;;;;;;6194384;23;20141;-82
2023/04/26 10:33:15;;;;;;;2.78;1.00;;;18.80;51.40;;;;;;6121632;22;20239;-82
2023/04/26 10:36:00;;;;;;;3.97;1.40;;;18.90;51.60;;;;;;6207656;23;20467;-83
2023/04/26 10:38:26;;;;;;;3.47;1.10;;;18.90;51.80;;;;;;6224326;23;20136;-82
2023/04/26 10:40:52;;;;;;;2.22;1.23;;;18.80;51.90;;;;;;6199073;23;20626;-83
2023/04/26 10:43:31;;;;;;;1.55;1.00;;;18.80;51.80;;;;;;6123141;23;20132;-85
2023/04/26 10:45:57;;;;;;;1.17;1.08;;;18.80;52.20;;;;;;6223687;23;20137;-84
2023/04/26 10:48:30;;;;;;;2.03;1.02;;;18.80;52.60;;;;;;6224713;23;20147;-84
2023/04/26 10:51:11;;;;;;;2.60;1.38;;;18.80;51.40;;;;;;6175044;23;20186;-85
2023/04/26 10:53:57;;;;;;;2.40;1.10;;;18.80;52.00;;;;;;6225991;23;20172;-85
2023/04/26 10:56:43;;;;;;;2.90;1.30;;;18.80;52.00;;;;;;6176913;23;20488;-86
2023/04/26 10:59:10;;;;;;;2.13;1.02;;;18.70;52.20;;;;;;6209566;23;20254;-86
2023/04/26 11:01:37;;;;;;;1.10;1.00;;;18.70;51.30;;;;;;6201650;23;20155;-84
2023/04/26 11:04:11;;;;;;;1.35;1.10;;;18.80;51.80;;;;;;6176522;23;20615;-84
2023/04/26 11:06:56;;;;;;;1.73;1.00;;;18.70;51.60;;;;;;6176605;23;20151;-84
2023/04/26 11:09:35;;;;;;;1.35;1.10;;;18.80;51.60;;;;;;6123155;23;20435;-85
2023/04/26 11:12:05;;;;;;;2.03;1.02;;;18.70;51.90;;;;;;6123451;23;20164;-84
2023/04/26 11:14:32;;;;;;;1.73;1.30;;;18.80;51.90;;;;;;6199856;23;20140;-84
2023/04/26 11:17:02;;;;;;;2.63;1.00;;;18.70;51.90;;;;;;6176411;23;20179;-84
2023/04/26 11:19:30;;;;;;;1.15;0.98;;;18.80;51.80;;;;;;6150509;23;20183;-84
2023/04/26 11:21:59;;;;;;;3.55;1.10;;;18.60;52.00;;;;;;6123317;23;20156;-84
2023/04/26 11:24:29;;;;;;;2.17;1.00;;;18.70;51.80;;;;;;6150034;23;20206;-85
2023/04/26 11:27:10;;;;;;;2.60;1.20;;;18.70;51.60;;;;;;6150554;23;20156;-85
2023/04/26 11:29:46;;;;;;;5.18;1.50;;;18.60;51.90;;;;;;6176127;23;20214;-85
2023/04/26 11:32:13;;;;;;;1.80;1.05;;;18.70;52.30;;;;;;6173274;23;20623;-84
2023/04/26 11:34:40;;;;;;;1.52;1.10;;;18.70;51.20;;;;;;6147721;23;20156;-85
2023/04/26 11:37:10;;;;;;;2.72;1.17;;;18.70;51.20;;;;;;6150758;23;20229;-85
2023/04/26 11:39:36;;;;;;;2.53;0.93;;;18.70;52.00;;;;;;6177294;23;20171;-85
2023/04/26 11:42:06;;;;;;;2.83;0.98;;;18.70;51.60;;;;;;6200994;23;20437;-85
2023/04/26 11:44:33;;;;;;;2.50;0.80;;;18.80;52.10;;;;;;6176181;23;20148;-85
2023/04/26 11:47:03;;;;;;;0.98;0.88;;;18.80;51.00;;;;;;6177347;23;20148;-85
2023/04/26 11:49:35;;;;;;;1.65;0.95;;;18.80;50.90;;;;;;6180594;23;20144;-86
2023/04/26 11:52:03;;;;;;;1.85;0.80;;;18.80;51.50;;;;;;6178683;23;20157;-86
2023/04/26 11:54:30;;;;;;;2.53;1.00;;;18.80;51.50;;;;;;6202759;23;20130;-84
2023/04/26 11:57:21;;;;;;;;;;;;;;;;;;;;;
2023/04/26 12:00:13;;;;;;;1.77;0.93;;;18.90;51.00;;;;;;6175206;23;20244;-86
2023/04/26 12:03:17;;;;;;;1.52;1.05;;;18.80;52.10;;;;;;6148119;23;20182;-87
2023/04/26 12:06:40;;;;;;;1.58;1.05;;;18.70;51.70;;;;;;6166937;23;20158;-85
2023/04/26 12:08:51;;;;;;;3.80;1.20;;;18.80;51.50;;;;;;6177576;23;20151;-86
2023/04/26 12:11:20;;;;;;;4.53;0.95;;;18.80;51.30;;;;;;6166234;23;20146;-88
2023/04/26 12:13:46;;;;;;;1.60;1.10;;;18.90;51.40;;;;;;6163730;23;20146;-88
2023/04/26 12:16:37;;;;;;;;;;;;;;;;;;;;;
2023/04/26 12:19:51;;;;;;;;;;;;;;;;;;;;;
2023/04/26 12:22:47;;;;;;;1.80;0.73;;;18.80;50.40;;;;;;6042337;23;20169;-87
2023/04/26 12:25:27;;;;;;;0.88;0.73;;;18.80;50.40;;;;;;6034727;23;20180;-84
2023/04/26 12:27:56;;;;;;;2.65;0.95;;;18.80;50.50;;;;;;6015944;23;20157;-86
2023/04/26 12:31:36;;;;;;;2.33;0.75;;;18.80;50.20;;;;;;6053146;23;20240;-88
2023/04/26 12:34:11;;;;;;;1.10;0.88;;;18.80;50.40;;;;;;5979870;24;20179;-86
2023/04/26 12:44:08;;;;;;;0.77;0.60;;;18.80;50.40;;;;;;5813746;24;20521;-88
2023/04/26 12:51:16;;;;;;;;;;;;;;;;;;;;;
2023/04/26 12:53:50;;;;;;;1.67;0.70;;;18.90;49.60;;;;;;5785401;24;20192;-86
2023/04/26 12:56:36;;;;;;;0.98;0.82;;;18.90;50.00;;;;;;5797125;24;20164;-87
2023/04/26 12:59:15;;;;;;;1.45;0.98;;;18.90;49.80;;;;;;5772468;24;20192;-85
2023/04/26 13:01:56;;;;;;;0.85;0.80;;;18.80;50.20;;;;;;5768426;24;20160;-84
2023/04/26 13:04:34;;;;;;;0.65;0.65;;;18.80;50.40;;;;;;5820219;24;20170;-85
2023/04/26 13:07:00;;;;;;;1.20;0.90;;;18.80;50.50;;;;;;5820800;24;20592;-84
2023/04/26 13:09:25;;;;;;;1.20;0.88;;;18.80;49.80;;;;;;5842680;24;20159;-84
2023/04/26 13:11:54;;;;;;;0.88;0.70;;;18.80;49.90;;;;;;5892724;24;20161;-84
2023/04/26 13:14:22;;;;;;;2.60;0.80;;;18.80;49.80;;;;;;5850576;24;20280;-83
2023/04/26 13:16:48;;;;;;;1.85;0.80;;;18.90;49.80;;;;;;5915137;24;20160;-84
2023/04/26 13:19:17;;;;;;;2.90;0.90;;;18.90;49.50;;;;;;5932115;24;20195;-84
2023/04/26 13:21:47;;;;;;;1.33;0.88;;;18.90;49.70;;;;;;6011550;23;20158;-84
2023/04/26 13:24:16;;;;;;;1.10;0.68;;;18.90;49.50;;;;;;5994763;23;20179;-83
2023/04/26 13:26:48;;;;;;;1.15;0.73;;;18.90;49.10;;;;;;6084537;23;20159;-82
2023/04/26 13:29:17;;;;;;;1.10;0.90;;;18.90;48.90;;;;;;6138108;23;20192;-82
2023/04/26 13:31:43;;;;;;;1.40;0.70;;;18.90;48.60;;;;;;6096466;23;20207;-84
2023/04/26 13:34:21;;;;;;;1.33;0.88;;;19.00;48.50;;;;;;6103342;23;20555;-84
2023/04/26 13:36:51;;;;;;;0.70;0.70;;;18.90;48.40;;;;;;6182284;23;20254;-83
2023/04/26 13:39:19;;;;;;;0.60;0.60;;;18.90;48.70;;;;;;6160140;23;20188;-83
2023/04/26 13:41:47;;;;;;;0.77;0.70;;;18.90;48.10;;;;;;6185073;23;20167;-82
2023/04/26 13:44:14;;;;;;;1.83;0.90;;;18.90;48.50;;;;;;6208724;23;20148;-83
2023/04/26 13:46:45;;;;;;;2.05;0.88;;;18.90;49.10;;;;;;6177985;23;20163;-83
2023/04/26 13:49:13;;;;;;;1.52;0.90;;;18.90;48.70;;;;;;6079362;23;20156;-82
2023/04/26 13:51:43;;;;;;;1.10;0.80;;;18.90;48.30;;;;;;6182649;23;20219;-85
2023/04/26 13:54:10;;;;;;;1.25;0.93;;;18.90;48.20;;;;;;6159007;23;20168;-86
2023/04/26 13:56:42;;;;;;;0.60;0.60;;;18.90;48.60;;;;;;6182332;23;20163;-84
2023/04/26 13:59:14;;;;;;;0.70;0.70;;;18.80;48.60;;;;;;6207340;23;20309;-84
2023/04/26 14:01:45;;;;;;;1.35;0.60;;;18.90;47.30;;;;;;6230347;23;20152;-84
2023/04/26 14:04:17;;;;;;;0.82;0.57;;;19.00;47.60;;;;;;6078937;23;20152;-85
2023/04/26 14:06:44;;;;;;;0.70;0.70;;;19.00;47.50;;;;;;6079635;23;20242;-86
2023/04/26 14:09:25;;;;;;;1.65;0.77;;;19.00;47.20;;;;;;6130271;23;20610;-85
2023/04/26 14:11:56;;;;;;;1.25;0.77;;;19.00;47.40;;;;;;6181020;23;20653;-84
2023/04/26 14:14:22;;;;;;;0.80;0.80;;;19.00;46.80;;;;;;6184795;23;20166;-84
2023/04/26 14:16:48;;;;;;;0.88;0.65;;;19.10;46.90;;;;;;6122890;23;20140;-85
2023/04/26 14:19:16;;;;;;;1.67;0.70;;;18.90;47.70;;;;;;6122700;23;20168;-85
2023/04/26 14:21:42;;;;;;;1.30;0.70;;;19.00;47.00;;;;;;6121497;23;20137;-84